createdAt,value
2017-06-22T00:00:07.465Z,100.000
2017-06-22T00:03:02.484Z,100.000
2017-06-22T00:05:57.581Z,100.000
2017-06-22T00:08:52.633Z,100.000
2017-06-22T00:11:47.542Z,100.000
2017-06-22T00:14:42.576Z,100.000
2017-06-22T00:17:37.544Z,100.000
2017-06-22T00:20:32.684Z,100.000
2017-06-22T00:23:27.711Z,100.000
2017-06-22T00:26:22.855Z,100.000
2017-06-22T00:29:17.774Z,100.000
2017-06-22T00:32:12.672Z,100.000
2017-06-22T00:35:07.709Z,100.000
2017-06-22T00:38:02.674Z,100.000
2017-06-22T00:40:57.714Z,100.000
2017-06-22T00:43:52.735Z,100.000
2017-06-22T00:46:47.672Z,100.000
2017-06-22T00:49:42.852Z,100.000
2017-06-22T00:52:37.733Z,100.000
2017-06-22T00:55:32.721Z,100.000
2017-06-22T00:58:27.680Z,100.000
2017-06-22T01:01:22.681Z,100.000
2017-06-22T01:04:17.659Z,100.000
2017-06-22T01:10:07.647Z,100.000
2017-06-22T01:13:02.596Z,100.000
2017-06-22T01:15:57.705Z,100.000
2017-06-22T01:18:52.669Z,100.000
2017-06-22T01:21:47.515Z,100.000
2017-06-22T01:24:42.532Z,100.000
2017-06-22T01:27:37.477Z,100.000
2017-06-22T01:30:32.430Z,100.000
2017-06-22T01:33:27.298Z,100.000
2017-06-22T01:36:22.246Z,100.000
2017-06-22T01:39:17.138Z,100.000
2017-06-22T01:42:12.051Z,100.000
2017-06-22T01:45:06.857Z,100.000
2017-06-22T01:48:01.743Z,100.000
2017-06-22T01:50:56.490Z,100.000
2017-06-22T01:53:51.376Z,100.000
2017-06-22T01:56:46.126Z,100.000
2017-06-22T01:59:40.850Z,100.000
2017-06-22T02:02:35.721Z,100.000
2017-06-22T02:05:30.561Z,100.000
2017-06-22T02:08:25.414Z,100.000
2017-06-22T02:11:20.158Z,100.000
2017-06-22T02:14:15.034Z,100.000
2017-06-22T02:17:09.968Z,100.000
2017-06-22T02:20:04.762Z,100.000
2017-06-22T02:23:00.007Z,100.000
2017-06-22T02:25:54.670Z,100.000
2017-06-22T02:28:49.440Z,100.000
2017-06-22T02:31:44.146Z,100.000
2017-06-22T02:34:38.970Z,100.000
2017-06-22T02:37:33.726Z,100.000
2017-06-22T02:40:28.588Z,100.000
2017-06-22T02:43:23.283Z,100.000
2017-06-22T02:46:18.054Z,100.000
2017-06-22T02:49:12.790Z,100.000
2017-06-22T02:52:07.488Z,100.000
2017-06-22T02:55:02.243Z,100.000
2017-06-22T02:57:56.910Z,100.000
2017-06-22T03:00:51.600Z,100.000
2017-06-22T03:03:46.390Z,100.000
2017-06-22T03:06:41.002Z,100.000
2017-06-22T03:09:35.637Z,100.000
2017-06-22T03:12:30.139Z,100.000
2017-06-22T03:15:24.728Z,100.000
2017-06-22T03:18:19.275Z,100.000
2017-06-22T03:21:13.779Z,100.000
2017-06-22T03:24:08.340Z,100.000
2017-06-22T03:27:02.901Z,100.000
2017-06-22T03:29:57.440Z,100.000
2017-06-22T03:32:51.851Z,100.000
2017-06-22T03:36:54.160Z,100.000
2017-06-22T03:42:17.070Z,100.000
2017-06-22T03:45:00.764Z,100.000
2017-06-22T03:47:54.629Z,100.000
2017-06-22T03:51:01.882Z,100.000
2017-06-22T03:54:34.873Z,100.000
2017-06-22T03:57:54.473Z,100.000
2017-06-22T04:00:40.598Z,100.000
2017-06-22T04:04:42.658Z,100.000
2017-06-22T04:08:23.908Z,100.000
2017-06-22T04:13:35.876Z,100.000
2017-06-22T04:16:19.682Z,100.000
2017-06-22T04:21:17.978Z,100.000
2017-06-22T04:33:49.562Z,100.000
2017-06-22T04:36:32.727Z,100.000
2017-06-22T04:39:26.480Z,100.000
2017-06-22T04:42:20.714Z,100.000
2017-06-22T04:45:15.380Z,100.000
2017-06-22T04:48:09.950Z,100.000
2017-06-22T04:51:06.210Z,100.000
2017-06-22T04:53:59.167Z,100.000
2017-06-22T04:56:53.854Z,100.000
2017-06-22T04:59:48.652Z,100.000
2017-06-22T05:02:43.348Z,100.000
2017-06-22T05:05:38.143Z,100.000
2017-06-22T05:08:32.945Z,100.000
2017-06-22T05:11:27.743Z,100.000
2017-06-22T05:14:22.586Z,100.000
2017-06-22T05:17:17.331Z,100.000
2017-06-22T05:20:12.104Z,100.000
2017-06-22T05:23:06.875Z,100.000
2017-06-22T05:26:01.456Z,100.000
2017-06-22T05:28:56.288Z,100.000
2017-06-22T05:31:51.324Z,100.000
2017-06-22T05:34:46.268Z,100.000
2017-06-22T05:37:41.020Z,100.000
2017-06-22T05:40:35.820Z,100.000
2017-06-22T05:43:30.618Z,100.000
2017-06-22T05:46:25.501Z,100.000
2017-06-22T05:49:20.347Z,100.000
2017-06-22T05:52:15.177Z,100.000
2017-06-22T05:55:10.047Z,100.000
2017-06-22T05:58:04.993Z,100.000
2017-06-22T06:00:59.856Z,100.000
2017-06-22T06:03:54.857Z,100.000
2017-06-22T06:06:49.876Z,100.000
2017-06-22T06:09:44.857Z,100.000
2017-06-22T06:12:39.896Z,100.000
2017-06-22T06:15:34.910Z,100.000
2017-06-22T06:18:29.998Z,100.000
2017-06-22T06:21:25.012Z,100.000
2017-06-22T06:24:20.049Z,100.000
2017-06-22T06:27:15.099Z,100.000
2017-06-22T06:30:10.178Z,100.000
2017-06-22T06:33:05.261Z,100.000
2017-06-22T06:36:00.272Z,100.000
2017-06-22T06:38:55.383Z,100.000
2017-06-22T06:41:50.402Z,100.000
2017-06-22T06:44:45.436Z,100.000
2017-06-22T06:47:40.667Z,100.000
2017-06-22T06:50:35.851Z,100.000
2017-06-22T06:53:30.963Z,99.757
2017-06-22T06:56:26.187Z,92.405
2017-06-22T06:59:21.376Z,88.564
2017-06-22T07:02:16.513Z,92.580
2017-06-22T07:05:11.636Z,90.708
2017-06-22T07:08:06.724Z,88.446
2017-06-22T07:11:01.879Z,92.084
2017-06-22T07:13:57.046Z,86.334
2017-06-22T07:16:52.211Z,81.033
2017-06-22T07:19:49.023Z,85.492
2017-06-22T07:22:42.549Z,82.404
2017-06-22T07:25:37.641Z,73.784
2017-06-22T07:28:32.716Z,78.709
2017-06-22T07:31:27.764Z,78.820
2017-06-22T07:34:22.908Z,82.127
2017-06-22T07:37:18.071Z,81.195
2017-06-22T07:40:13.144Z,83.057
2017-06-22T07:43:08.200Z,76.426
2017-06-22T07:46:03.337Z,77.856
2017-06-22T07:48:58.476Z,83.497
2017-06-22T07:51:53.564Z,84.392
2017-06-22T07:54:48.680Z,80.742
2017-06-22T07:57:43.995Z,84.107
2017-06-22T08:00:39.137Z,84.844
2017-06-22T08:03:34.224Z,81.238
2017-06-22T08:06:29.318Z,79.601
2017-06-22T08:09:24.407Z,77.730
2017-06-22T08:12:19.609Z,76.571
2017-06-22T08:15:14.755Z,74.521
2017-06-22T08:18:09.966Z,75.528
2017-06-22T08:21:05.354Z,74.114
2017-06-22T08:24:00.740Z,75.473
2017-06-22T08:26:56.254Z,78.049
2017-06-22T08:29:51.726Z,68.416
2017-06-22T08:32:47.211Z,73.356
2017-06-22T08:35:42.783Z,69.228
2017-06-22T08:38:38.395Z,69.939
2017-06-22T08:41:34.309Z,68.465
2017-06-22T08:44:30.191Z,67.944
2017-06-22T08:47:26.155Z,66.365
2017-06-22T08:50:22.171Z,57.757
2017-06-22T08:53:18.047Z,58.818
2017-06-22T08:56:13.830Z,59.121
2017-06-22T08:59:09.660Z,57.007
2017-06-22T09:02:05.721Z,53.083
2017-06-22T09:05:01.761Z,48.722
2017-06-22T09:07:57.714Z,47.760
2017-06-22T09:10:53.585Z,48.802
2017-06-22T09:13:49.620Z,52.290
2017-06-22T09:16:45.579Z,49.639
2017-06-22T09:19:41.511Z,43.067
2017-06-22T09:22:37.341Z,36.335
2017-06-22T09:25:33.215Z,39.691
2017-06-22T09:28:29.087Z,42.723
2017-06-22T09:31:24.963Z,38.391
2017-06-22T09:34:20.780Z,41.528
2017-06-22T09:37:16.656Z,38.137
2017-06-22T09:40:12.500Z,34.346
2017-06-22T09:43:08.435Z,38.133
2017-06-22T09:46:04.343Z,39.292
2017-06-22T09:49:00.330Z,35.999
2017-06-22T09:51:56.298Z,33.390
2017-06-22T09:54:52.285Z,32.815
2017-06-22T09:57:47.887Z,31.602
2017-06-22T10:00:43.939Z,32.876
2017-06-22T10:03:39.951Z,32.148
2017-06-22T10:06:35.929Z,33.323
2017-06-22T10:09:32.063Z,29.632
2017-06-22T10:12:28.210Z,31.512
2017-06-22T10:15:24.441Z,31.707
2017-06-22T10:18:20.799Z,29.376
2017-06-22T10:21:17.208Z,28.158
2017-06-22T10:24:13.458Z,30.966
2017-06-22T10:27:09.507Z,27.643
2017-06-22T10:30:05.348Z,28.527
2017-06-22T10:33:00.707Z,28.845
2017-06-22T10:35:56.089Z,29.336
2017-06-22T10:38:51.345Z,31.945
2017-06-22T10:41:46.625Z,30.750
2017-06-22T10:44:41.894Z,32.006
2017-06-22T10:47:37.285Z,33.994
2017-06-22T10:50:32.480Z,30.919
2017-06-22T10:53:27.750Z,33.309
2017-06-22T10:56:22.952Z,35.792
2017-06-22T10:59:18.199Z,35.227
2017-06-22T11:02:13.371Z,34.069
2017-06-22T11:05:08.434Z,37.627
2017-06-22T11:08:03.512Z,40.519
2017-06-22T11:10:58.556Z,42.899
2017-06-22T11:13:53.499Z,41.099
2017-06-22T11:16:48.601Z,45.176
2017-06-22T11:19:43.690Z,48.038
2017-06-22T11:22:38.894Z,47.171
2017-06-22T11:25:34.175Z,49.668
2017-06-22T11:28:29.451Z,50.540
2017-06-22T11:31:24.734Z,53.516
2017-06-22T11:34:19.962Z,55.230
2017-06-22T11:37:15.266Z,58.236
2017-06-22T11:40:10.496Z,58.439
2017-06-22T11:43:05.710Z,58.249
2017-06-22T11:46:01.046Z,59.580
2017-06-22T11:48:56.434Z,59.842
2017-06-22T11:51:51.764Z,62.538
2017-06-22T11:54:47.112Z,63.671
2017-06-22T11:57:42.620Z,65.647
2017-06-22T12:00:38.114Z,62.272
2017-06-22T12:03:33.670Z,65.624
2017-06-22T12:06:29.165Z,64.125
2017-06-22T12:09:25.051Z,70.329
2017-06-22T12:12:20.227Z,76.091
2017-06-22T12:15:15.786Z,79.836
2017-06-22T12:18:11.314Z,90.000
2017-06-22T12:21:06.787Z,89.270
2017-06-22T12:24:02.258Z,91.616
2017-06-22T12:26:57.619Z,97.291
2017-06-22T12:29:53.076Z,93.112
2017-06-22T12:32:48.418Z,95.775
2017-06-22T12:35:43.797Z,100.000
2017-06-22T12:38:39.130Z,100.000
2017-06-22T12:41:34.396Z,100.000
2017-06-22T12:44:29.664Z,100.000
2017-06-22T12:47:24.810Z,100.000
2017-06-22T12:50:19.929Z,100.000
2017-06-22T12:53:14.980Z,100.000
2017-06-22T12:56:09.939Z,100.000
2017-06-22T12:59:04.970Z,100.000
2017-06-22T13:02:00.038Z,100.000
2017-06-22T13:04:55.090Z,100.000
2017-06-22T13:07:50.205Z,100.000
2017-06-22T13:10:58.352Z,100.000
2017-06-22T13:14:32.110Z,100.000
